CMW weather

Ignacio Agramonte International Airport
Camaguey, Camag├╝ey, Cuba

Public forecast

Using degrees Celsius for public forecast. Weather courtesy of forecast.io.

METAR (pilot weather report)

Retrieved 2019/07/24 05:50 UTC (51 minutes ago):

MUCM 240550Z 03002KT 9000 SKC 24/23 Q1018

TAF (pilot weather forecast)

Retrieved 2019/07/24 06:03 UTC (38 minutes ago):

TAF TAF MUCM 240500Z 2406/2506 VRB03KT 8000 SCT020 TEMPO 2419/2501 VRB15KT 3000 TSRA SCT018CB BKN020